sensor_id;sensor_type;location;lat;lon;timestamp;temperature;humidity
39519;DHT22;25200;53.394;10.414;2023-04-28T00:00:18;7.40;63.70
39519;DHT22;25200;53.394;10.414;2023-04-28T00:02:44;7.40;63.50
39519;DHT22;25200;53.394;10.414;2023-04-28T00:05:11;7.40;63.60
39519;DHT22;25200;53.394;10.414;2023-04-28T00:07:36;7.40;63.80
39519;DHT22;25200;53.394;10.414;2023-04-28T00:10:02;7.30;63.60
39519;DHT22;25200;53.394;10.414;2023-04-28T00:12:28;7.30;63.80
39519;DHT22;25200;53.394;10.414;2023-04-28T00:14:53;7.30;63.60
39519;DHT22;25200;53.394;10.414;2023-04-28T00:17:19;7.20;63.90
39519;DHT22;25200;53.394;10.414;2023-04-28T00:19:45;7.20;63.90
39519;DHT22;25200;53.394;10.414;2023-04-28T00:22:10;7.20;63.80
39519;DHT22;25200;53.394;10.414;2023-04-28T00:24:36;7.20;63.70
39519;DHT22;25200;53.394;10.414;2023-04-28T00:27:02;7.10;63.80
39519;DHT22;25200;53.394;10.414;2023-04-28T00:29:28;7.10;63.80
39519;DHT22;25200;53.394;10.414;2023-04-28T00:31:53;7.10;64.10
39519;DHT22;25200;53.394;10.414;2023-04-28T00:34:19;7.00;63.90
39519;DHT22;25200;53.394;10.414;2023-04-28T00:36:44;7.10;64.00
39519;DHT22;25200;53.394;10.414;2023-04-28T00:39:10;7.00;64.00
39519;DHT22;25200;53.394;10.414;2023-04-28T00:41:36;7.00;64.00
39519;DHT22;25200;53.394;10.414;2023-04-28T00:44:02;7.00;64.00
39519;DHT22;25200;53.394;10.414;2023-04-28T00:46:29;7.00;64.20
39519;DHT22;25200;53.394;10.414;2023-04-28T00:48:57;7.00;64.10
39519;DHT22;25200;53.394;10.414;2023-04-28T00:51:23;7.00;64.30
39519;DHT22;25200;53.394;10.414;2023-04-28T00:53:49;7.00;64.50
39519;DHT22;25200;53.394;10.414;2023-04-28T00:56:15;7.00;64.30
39519;DHT22;25200;53.394;10.414;2023-04-28T00:58:42;7.00;64.40
39519;DHT22;25200;53.394;10.414;2023-04-28T01:01:08;7.00;64.30
39519;DHT22;25200;53.394;10.414;2023-04-28T01:03:36;7.00;64.30
39519;DHT22;25200;53.394;10.414;2023-04-28T01:06:07;7.00;64.20
39519;DHT22;25200;53.394;10.414;2023-04-28T01:08:34;7.00;64.20
39519;DHT22;25200;53.394;10.414;2023-04-28T01:11:01;7.00;64.20
39519;DHT22;25200;53.394;10.414;2023-04-28T01:13:27;7.00;64.30
39519;DHT22;25200;53.394;10.414;2023-04-28T01:15:54;6.90;64.40
39519;DHT22;25200;53.394;10.414;2023-04-28T01:18:20;6.90;64.00
39519;DHT22;25200;53.394;10.414;2023-04-28T01:20:45;6.90;64.10
39519;DHT22;25200;53.394;10.414;2023-04-28T01:23:12;6.90;64.20
39519;DHT22;25200;53.394;10.414;2023-04-28T01:25:39;6.90;64.60
39519;DHT22;25200;53.394;10.414;2023-04-28T01:28:04;6.90;64.50
39519;DHT22;25200;53.394;10.414;2023-04-28T01:30:30;6.80;64.50
39519;DHT22;25200;53.394;10.414;2023-04-28T01:32:56;6.90;64.50
39519;DHT22;25200;53.394;10.414;2023-04-28T01:35:21;6.80;64.50
39519;DHT22;25200;53.394;10.414;2023-04-28T01:37:47;6.80;64.20
39519;DHT22;25200;53.394;10.414;2023-04-28T01:40:13;6.80;64.30
39519;DHT22;25200;53.394;10.414;2023-04-28T01:42:38;6.80;64.40
39519;DHT22;25200;53.394;10.414;2023-04-28T01:45:04;6.80;64.40
39519;DHT22;25200;53.394;10.414;2023-04-28T01:47:30;6.80;64.20
39519;DHT22;25200;53.394;10.414;2023-04-28T01:49:56;6.80;64.30
39519;DHT22;25200;53.394;10.414;2023-04-28T01:52:22;6.70;64.40
39519;DHT22;25200;53.394;10.414;2023-04-28T01:54:49;6.70;64.20
39519;DHT22;25200;53.394;10.414;2023-04-28T01:57:15;6.70;64.60
39519;DHT22;25200;53.394;10.414;2023-04-28T01:59:41;6.70;64.40
39519;DHT22;25200;53.394;10.414;2023-04-28T02:02:07;6.60;64.50
39519;DHT22;25200;53.394;10.414;2023-04-28T02:04:32;6.60;64.20
39519;DHT22;25200;53.394;10.414;2023-04-28T02:06:58;6.60;64.60
39519;DHT22;25200;53.394;10.414;2023-04-28T02:09:24;6.50;64.20
39519;DHT22;25200;53.394;10.414;2023-04-28T02:11:50;6.50;64.40
39519;DHT22;25200;53.394;10.414;2023-04-28T02:14:15;6.50;64.20
39519;DHT22;25200;53.394;10.414;2023-04-28T02:16:41;6.50;64.30
39519;DHT22;25200;53.394;10.414;2023-04-28T02:19:07;6.50;64.40
39519;DHT22;25200;53.394;10.414;2023-04-28T02:21:33;6.50;64.40
39519;DHT22;25200;53.394;10.414;2023-04-28T02:23:58;6.50;64.40
39519;DHT22;25200;53.394;10.414;2023-04-28T02:26:24;6.40;64.40
39519;DHT22;25200;53.394;10.414;2023-04-28T02:28:50;6.50;64.60
39519;DHT22;25200;53.394;10.414;2023-04-28T02:31:17;6.40;64.20
39519;DHT22;25200;53.394;10.414;2023-04-28T02:33:42;6.40;64.50
39519;DHT22;25200;53.394;10.414;2023-04-28T02:36:08;6.30;64.30
39519;DHT22;25200;53.394;10.414;2023-04-28T02:38:34;6.30;64.40
39519;DHT22;25200;53.394;10.414;2023-04-28T02:41:02;6.30;65.00
39519;DHT22;25200;53.394;10.414;2023-04-28T02:43:30;6.30;64.60
39519;DHT22;25200;53.394;10.414;2023-04-28T02:45:56;6.30;64.40
39519;DHT22;25200;53.394;10.414;2023-04-28T02:48:23;6.30;64.50
39519;DHT22;25200;53.394;10.414;2023-04-28T02:50:49;6.30;64.60
39519;DHT22;25200;53.394;10.414;2023-04-28T02:53:14;6.30;64.70
39519;DHT22;25200;53.394;10.414;2023-04-28T02:55:40;6.30;64.80
39519;DHT22;25200;53.394;10.414;2023-04-28T02:58:06;6.30;64.60
39519;DHT22;25200;53.394;10.414;2023-04-28T03:00:31;6.20;64.30
39519;DHT22;25200;53.394;10.414;2023-04-28T03:02:57;6.20;64.60
39519;DHT22;25200;53.394;10.414;2023-04-28T03:05:23;6.20;64.40
39519;DHT22;25200;53.394;10.414;2023-04-28T03:07:49;6.10;64.60
39519;DHT22;25200;53.394;10.414;2023-04-28T03:10:15;6.10;64.60
39519;DHT22;25200;53.394;10.414;2023-04-28T03:12:40;6.10;64.70
39519;DHT22;25200;53.394;10.414;2023-04-28T03:15:06;6.10;64.90
39519;DHT22;25200;53.394;10.414;2023-04-28T03:17:34;6.10;64.70
39519;DHT22;25200;53.394;10.414;2023-04-28T03:20:01;6.10;64.60
39519;DHT22;25200;53.394;10.414;2023-04-28T03:22:27;6.00;64.60
39519;DHT22;25200;53.394;10.414;2023-04-28T03:24:53;6.00;64.50
39519;DHT22;25200;53.394;10.414;2023-04-28T03:27:18;6.00;65.30
39519;DHT22;25200;53.394;10.414;2023-04-28T03:29:44;5.90;64.70
39519;DHT22;25200;53.394;10.414;2023-04-28T03:32:10;5.90;64.80
39519;DHT22;25200;53.394;10.414;2023-04-28T03:34:35;5.90;64.70
39519;DHT22;25200;53.394;10.414;2023-04-28T03:37:01;5.80;64.90
39519;DHT22;25200;53.394;10.414;2023-04-28T03:39:26;5.80;64.80
39519;DHT22;25200;53.394;10.414;2023-04-28T03:41:52;5.80;65.30
39519;DHT22;25200;53.394;10.414;2023-04-28T03:44:18;5.80;64.80
39519;DHT22;25200;53.394;10.414;2023-04-28T03:46:43;5.70;64.80
39519;DHT22;25200;53.394;10.414;2023-04-28T03:49:09;5.80;64.80
39519;DHT22;25200;53.394;10.414;2023-04-28T03:51:35;5.80;64.80
39519;DHT22;25200;53.394;10.414;2023-04-28T03:54:00;5.70;64.70
39519;DHT22;25200;53.394;10.414;2023-04-28T03:56:26;5.70;64.80
39519;DHT22;25200;53.394;10.414;2023-04-28T03:58:52;5.70;64.90
39519;DHT22;25200;53.394;10.414;2023-04-28T04:01:17;5.70;64.90
39519;DHT22;25200;53.394;10.414;2023-04-28T04:03:43;5.70;64.90
39519;DHT22;25200;53.394;10.414;2023-04-28T04:06:09;5.60;64.70
39519;DHT22;25200;53.394;10.414;2023-04-28T04:08:34;5.60;64.90
39519;DHT22;25200;53.394;10.414;2023-04-28T04:11:00;5.60;65.70
39519;DHT22;25200;53.394;10.414;2023-04-28T04:13:26;5.60;65.20
39519;DHT22;25200;53.394;10.414;2023-04-28T04:15:51;5.60;65.20
39519;DHT22;25200;53.394;10.414;2023-04-28T04:18:17;5.60;65.30
39519;DHT22;25200;53.394;10.414;2023-04-28T04:20:43;5.70;65.20
39519;DHT22;25200;53.394;10.414;2023-04-28T04:23:09;5.70;65.20
39519;DHT22;25200;53.394;10.414;2023-04-28T04:25:35;5.70;65.10
39519;DHT22;25200;53.394;10.414;2023-04-28T04:28:00;5.70;65.30
39519;DHT22;25200;53.394;10.414;2023-04-28T04:30:26;5.70;65.10
39519;DHT22;25200;53.394;10.414;2023-04-28T04:32:52;5.80;65.10
39519;DHT22;25200;53.394;10.414;2023-04-28T04:35:18;5.70;65.00
39519;DHT22;25200;53.394;10.414;2023-04-28T04:37:43;5.70;65.20
39519;DHT22;25200;53.394;10.414;2023-04-28T04:40:09;5.70;65.10
39519;DHT22;25200;53.394;10.414;2023-04-28T04:42:35;5.80;65.20
39519;DHT22;25200;53.394;10.414;2023-04-28T04:45:00;5.80;65.00
39519;DHT22;25200;53.394;10.414;2023-04-28T04:47:26;5.80;65.70
39519;DHT22;25200;53.394;10.414;2023-04-28T04:49:52;5.80;65.10
39519;DHT22;25200;53.394;10.414;2023-04-28T04:52:18;5.80;65.00
39519;DHT22;25200;53.394;10.414;2023-04-28T04:54:44;5.90;65.00
39519;DHT22;25200;53.394;10.414;2023-04-28T04:57:11;5.90;65.00
39519;DHT22;25200;53.394;10.414;2023-04-28T04:59:37;5.90;65.10
39519;DHT22;25200;53.394;10.414;2023-04-28T05:02:02;5.90;64.60
39519;DHT22;25200;53.394;10.414;2023-04-28T05:04:28;5.90;65.10
39519;DHT22;25200;53.394;10.414;2023-04-28T05:06:54;5.90;64.90
39519;DHT22;25200;53.394;10.414;2023-04-28T05:09:19;5.90;64.80
39519;DHT22;25200;53.394;10.414;2023-04-28T05:11:45;6.00;65.00
39519;DHT22;25200;53.394;10.414;2023-04-28T05:14:11;6.00;65.30
39519;DHT22;25200;53.394;10.414;2023-04-28T05:16:37;6.00;64.90
39519;DHT22;25200;53.394;10.414;2023-04-28T05:19:03;6.00;65.00
39519;DHT22;25200;53.394;10.414;2023-04-28T05:21:29;6.10;65.00
39519;DHT22;25200;53.394;10.414;2023-04-28T05:23:55;6.10;64.90
39519;DHT22;25200;53.394;10.414;2023-04-28T05:26:22;6.10;64.60
39519;DHT22;25200;53.394;10.414;2023-04-28T05:28:47;6.20;64.80
39519;DHT22;25200;53.394;10.414;2023-04-28T05:31:13;6.30;69.50
39519;DHT22;25200;53.394;10.414;2023-04-28T05:33:39;6.50;69.50
39519;DHT22;25200;53.394;10.414;2023-04-28T05:36:05;6.50;65.90
39519;DHT22;25200;53.394;10.414;2023-04-28T05:38:31;6.50;65.50
39519;DHT22;25200;53.394;10.414;2023-04-28T05:40:58;6.50;65.40
39519;DHT22;25200;53.394;10.414;2023-04-28T05:43:23;6.60;65.10
39519;DHT22;25200;53.394;10.414;2023-04-28T05:45:49;6.60;65.00
39519;DHT22;25200;53.394;10.414;2023-04-28T05:48:15;6.70;65.00
39519;DHT22;25200;53.394;10.414;2023-04-28T05:50:41;6.80;65.00
39519;DHT22;25200;53.394;10.414;2023-04-28T05:53:06;6.90;66.20
39519;DHT22;25200;53.394;10.414;2023-04-28T05:55:32;7.00;67.10
39519;DHT22;25200;53.394;10.414;2023-04-28T05:58:03;7.20;66.80
39519;DHT22;25200;53.394;10.414;2023-04-28T06:00:29;7.30;66.00
39519;DHT22;25200;53.394;10.414;2023-04-28T06:02:55;7.40;65.60
39519;DHT22;25200;53.394;10.414;2023-04-28T06:05:21;7.40;65.20
39519;DHT22;25200;53.394;10.414;2023-04-28T06:07:47;7.50;65.00
39519;DHT22;25200;53.394;10.414;2023-04-28T06:10:13;7.50;64.80
39519;DHT22;25200;53.394;10.414;2023-04-28T06:12:38;7.60;64.90
39519;DHT22;25200;53.394;10.414;2023-04-28T06:15:05;7.60;64.90
39519;DHT22;25200;53.394;10.414;2023-04-28T06:17:31;7.70;64.60
39519;DHT22;25200;53.394;10.414;2023-04-28T06:19:58;7.80;64.80
39519;DHT22;25200;53.394;10.414;2023-04-28T06:22:26;7.80;64.60
39519;DHT22;25200;53.394;10.414;2023-04-28T06:24:52;7.90;65.10
39519;DHT22;25200;53.394;10.414;2023-04-28T06:27:17;8.10;65.00
39519;DHT22;25200;53.394;10.414;2023-04-28T06:29:44;8.20;65.20
39519;DHT22;25200;53.394;10.414;2023-04-28T06:32:09;8.30;65.10
39519;DHT22;25200;53.394;10.414;2023-04-28T06:34:36;8.50;65.00
39519;DHT22;25200;53.394;10.414;2023-04-28T06:37:02;8.60;65.00
39519;DHT22;25200;53.394;10.414;2023-04-28T06:39:28;8.70;64.60
39519;DHT22;25200;53.394;10.414;2023-04-28T06:41:53;8.70;64.30
39519;DHT22;25200;53.394;10.414;2023-04-28T06:44:19;8.80;64.20
39519;DHT22;25200;53.394;10.414;2023-04-28T06:46:44;8.90;65.40
39519;DHT22;25200;53.394;10.414;2023-04-28T06:49:10;9.00;64.50
39519;DHT22;25200;53.394;10.414;2023-04-28T06:51:39;9.10;64.20
39519;DHT22;25200;53.394;10.414;2023-04-28T06:54:04;9.10;64.30
39519;DHT22;25200;53.394;10.414;2023-04-28T06:56:31;9.20;64.40
39519;DHT22;25200;53.394;10.414;2023-04-28T06:58:57;9.30;64.50
39519;DHT22;25200;53.394;10.414;2023-04-28T07:01:23;9.40;64.50
39519;DHT22;25200;53.394;10.414;2023-04-28T07:03:49;9.60;64.20
39519;DHT22;25200;53.394;10.414;2023-04-28T07:06:15;9.70;64.40
39519;DHT22;25200;53.394;10.414;2023-04-28T07:08:42;9.80;64.60
39519;DHT22;25200;53.394;10.414;2023-04-28T07:11:08;9.90;64.50
39519;DHT22;25200;53.394;10.414;2023-04-28T07:13:34;10.10;64.70
39519;DHT22;25200;53.394;10.414;2023-04-28T07:15:59;10.20;64.90
39519;DHT22;25200;53.394;10.414;2023-04-28T07:18:25;10.40;64.70
39519;DHT22;25200;53.394;10.414;2023-04-28T07:20:51;10.50;64.10
39519;DHT22;25200;53.394;10.414;2023-04-28T07:23:17;10.60;64.10
39519;DHT22;25200;53.394;10.414;2023-04-28T07:25:42;10.70;64.20
39519;DHT22;25200;53.394;10.414;2023-04-28T07:28:08;10.80;63.90
39519;DHT22;25200;53.394;10.414;2023-04-28T07:30:34;10.90;63.80
39519;DHT22;25200;53.394;10.414;2023-04-28T07:33:00;11.00;64.00
39519;DHT22;25200;53.394;10.414;2023-04-28T07:35:27;11.10;64.40
39519;DHT22;25200;53.394;10.414;2023-04-28T07:37:53;11.30;64.20
39519;DHT22;25200;53.394;10.414;2023-04-28T07:40:20;11.40;64.30
39519;DHT22;25200;53.394;10.414;2023-04-28T07:42:46;11.60;64.10
39519;DHT22;25200;53.394;10.414;2023-04-28T07:45:13;11.70;64.20
39519;DHT22;25200;53.394;10.414;2023-04-28T07:47:39;11.90;64.00
39519;DHT22;25200;53.394;10.414;2023-04-28T07:50:05;12.00;63.50
39519;DHT22;25200;53.394;10.414;2023-04-28T07:52:32;12.20;63.90
39519;DHT22;25200;53.394;10.414;2023-04-28T07:54:58;12.30;63.00
39519;DHT22;25200;53.394;10.414;2023-04-28T07:57:24;12.40;63.40
39519;DHT22;25200;53.394;10.414;2023-04-28T07:59:50;12.50;63.20
39519;DHT22;25200;53.394;10.414;2023-04-28T08:02:16;12.60;63.30
39519;DHT22;25200;53.394;10.414;2023-04-28T08:04:41;12.80;63.40
39519;DHT22;25200;53.394;10.414;2023-04-28T08:07:10;13.00;63.40
39519;DHT22;25200;53.394;10.414;2023-04-28T08:09:36;13.20;63.30
39519;DHT22;25200;53.394;10.414;2023-04-28T08:12:02;13.30;63.70
39519;DHT22;25200;53.394;10.414;2023-04-28T08:14:28;13.50;63.30
39519;DHT22;25200;53.394;10.414;2023-04-28T08:16:54;13.70;62.90
39519;DHT22;25200;53.394;10.414;2023-04-28T08:19:20;13.80;62.60
39519;DHT22;25200;53.394;10.414;2023-04-28T08:21:46;14.00;62.80
39519;DHT22;25200;53.394;10.414;2023-04-28T08:24:11;14.10;62.50
39519;DHT22;25200;53.394;10.414;2023-04-28T08:26:37;14.20;62.70
39519;DHT22;25200;53.394;10.414;2023-04-28T08:29:03;14.30;62.50
39519;DHT22;25200;53.394;10.414;2023-04-28T08:31:29;14.40;62.50
39519;DHT22;25200;53.394;10.414;2023-04-28T08:33:55;14.60;62.90
39519;DHT22;25200;53.394;10.414;2023-04-28T08:36:21;14.90;62.30
39519;DHT22;25200;53.394;10.414;2023-04-28T08:38:47;15.00;62.30
39519;DHT22;25200;53.394;10.414;2023-04-28T08:41:16;15.20;61.80
39519;DHT22;25200;53.394;10.414;2023-04-28T08:43:43;15.40;62.40
39519;DHT22;25200;53.394;10.414;2023-04-28T08:46:10;15.50;61.50
39519;DHT22;25200;53.394;10.414;2023-04-28T08:48:43;15.60;61.10
39519;DHT22;25200;53.394;10.414;2023-04-28T08:51:17;15.70;61.50
39519;DHT22;25200;53.394;10.414;2023-04-28T08:53:49;15.80;61.70
39519;DHT22;25200;53.394;10.414;2023-04-28T08:56:16;16.00;61.90
39519;DHT22;25200;53.394;10.414;2023-04-28T08:58:43;16.30;61.60
39519;DHT22;25200;53.394;10.414;2023-04-28T09:01:09;16.40;61.60
39519;DHT22;25200;53.394;10.414;2023-04-28T09:03:34;16.50;60.10
39519;DHT22;25200;53.394;10.414;2023-04-28T09:06:01;16.70;61.00
39519;DHT22;25200;53.394;10.414;2023-04-28T09:08:27;16.90;61.10
39519;DHT22;25200;53.394;10.414;2023-04-28T09:11:10;17.10;60.00
39519;DHT22;25200;53.394;10.414;2023-04-28T09:13:38;17.20;60.60
39519;DHT22;25200;53.394;10.414;2023-04-28T09:16:04;17.30;60.70
39519;DHT22;25200;53.394;10.414;2023-04-28T09:18:30;17.40;59.80
39519;DHT22;25200;53.394;10.414;2023-04-28T09:21:05;17.50;59.20
39519;DHT22;25200;53.394;10.414;2023-04-28T09:23:31;17.60;60.10
39519;DHT22;25200;53.394;10.414;2023-04-28T09:26:06;17.60;59.70
39519;DHT22;25200;53.394;10.414;2023-04-28T09:28:33;17.60;60.00
39519;DHT22;25200;53.394;10.414;2023-04-28T09:30:59;17.70;60.60
39519;DHT22;25200;53.394;10.414;2023-04-28T09:33:25;17.70;58.80
39519;DHT22;25200;53.394;10.414;2023-04-28T09:35:51;17.70;59.70
39519;DHT22;25200;53.394;10.414;2023-04-28T09:38:19;17.70;58.50
39519;DHT22;25200;53.394;10.414;2023-04-28T09:40:58;17.70;59.00
39519;DHT22;25200;53.394;10.414;2023-04-28T09:45:49;17.90;59.70
39519;DHT22;25200;53.394;10.414;2023-04-28T09:48:15;18.00;58.40
39519;DHT22;25200;53.394;10.414;2023-04-28T09:50:41;18.00;59.40
39519;DHT22;25200;53.394;10.414;2023-04-28T09:53:10;18.10;59.80
39519;DHT22;25200;53.394;10.414;2023-04-28T09:55:42;18.30;57.60
39519;DHT22;25200;53.394;10.414;2023-04-28T09:58:09;18.30;59.50
39519;DHT22;25200;53.394;10.414;2023-04-28T10:00:38;18.30;59.40
39519;DHT22;25200;53.394;10.414;2023-04-28T10:03:05;18.30;59.40
39519;DHT22;25200;53.394;10.414;2023-04-28T10:05:32;18.30;59.10
39519;DHT22;25200;53.394;10.414;2023-04-28T10:08:01;18.30;59.00
39519;DHT22;25200;53.394;10.414;2023-04-28T10:10:27;18.30;59.40
39519;DHT22;25200;53.394;10.414;2023-04-28T10:12:54;18.20;59.70
39519;DHT22;25200;53.394;10.414;2023-04-28T10:15:20;18.30;59.80
39519;DHT22;25200;53.394;10.414;2023-04-28T10:17:47;18.40;59.30
39519;DHT22;25200;53.394;10.414;2023-04-28T10:20:15;18.40;58.30
39519;DHT22;25200;53.394;10.414;2023-04-28T10:25:30;18.90;57.80
39519;DHT22;25200;53.394;10.414;2023-04-28T10:27:58;19.10;59.10
39519;DHT22;25200;53.394;10.414;2023-04-28T10:30:26;19.20;59.70
39519;DHT22;25200;53.394;10.414;2023-04-28T10:38:19;19.20;57.90
39519;DHT22;25200;53.394;10.414;2023-04-28T10:40:51;19.20;56.30
39519;DHT22;25200;53.394;10.414;2023-04-28T10:43:36;19.10;57.70
39519;DHT22;25200;53.394;10.414;2023-04-28T10:46:05;19.20;58.60
39519;DHT22;25200;53.394;10.414;2023-04-28T10:56:12;19.20;54.80
39519;DHT22;25200;53.394;10.414;2023-04-28T10:58:40;19.20;54.90
39519;DHT22;25200;53.394;10.414;2023-04-28T11:03:51;18.80;56.10
39519;DHT22;25200;53.394;10.414;2023-04-28T11:19:25;19.60;54.20
39519;DHT22;25200;53.394;10.414;2023-04-28T11:21:53;20.00;55.40
39519;DHT22;25200;53.394;10.414;2023-04-28T11:24:20;20.30;55.10
39519;DHT22;25200;53.394;10.414;2023-04-28T11:26:47;20.40;54.80
39519;DHT22;25200;53.394;10.414;2023-04-28T11:29:13;20.40;54.60
39519;DHT22;25200;53.394;10.414;2023-04-28T11:31:40;20.40;53.70
39519;DHT22;25200;53.394;10.414;2023-04-28T11:34:18;20.50;53.40
39519;DHT22;25200;53.394;10.414;2023-04-28T11:36:44;20.70;53.90
39519;DHT22;25200;53.394;10.414;2023-04-28T11:39:11;20.80;53.70
39519;DHT22;25200;53.394;10.414;2023-04-28T11:41:38;20.60;52.60
39519;DHT22;25200;53.394;10.414;2023-04-28T11:46:49;20.70;54.80
39519;DHT22;25200;53.394;10.414;2023-04-28T11:49:18;20.70;54.20
39519;DHT22;25200;53.394;10.414;2023-04-28T11:51:44;20.70;54.10
39519;DHT22;25200;53.394;10.414;2023-04-28T11:54:11;20.60;51.60
39519;DHT22;25200;53.394;10.414;2023-04-28T11:56:40;20.60;53.30
39519;DHT22;25200;53.394;10.414;2023-04-28T12:01:33;20.50;52.80
39519;DHT22;25200;53.394;10.414;2023-04-28T12:04:02;20.50;54.60
39519;DHT22;25200;53.394;10.414;2023-04-28T12:06:28;20.30;53.70
39519;DHT22;25200;53.394;10.414;2023-04-28T12:08:54;20.40;54.80
39519;DHT22;25200;53.394;10.414;2023-04-28T12:11:20;20.40;56.10
39519;DHT22;25200;53.394;10.414;2023-04-28T12:14:05;20.40;56.30
39519;DHT22;25200;53.394;10.414;2023-04-28T12:16:39;20.40;55.80
39519;DHT22;25200;53.394;10.414;2023-04-28T12:19:08;20.30;55.70
39519;DHT22;25200;53.394;10.414;2023-04-28T12:21:36;20.30;56.30
39519;DHT22;25200;53.394;10.414;2023-04-28T12:24:16;20.40;57.00
39519;DHT22;25200;53.394;10.414;2023-04-28T12:26:41;20.40;57.00
39519;DHT22;25200;53.394;10.414;2023-04-28T12:29:07;20.50;56.50
39519;DHT22;25200;53.394;10.414;2023-04-28T12:31:49;20.50;57.00
39519;DHT22;25200;53.394;10.414;2023-04-28T12:34:17;20.50;56.80
39519;DHT22;25200;53.394;10.414;2023-04-28T12:36:43;20.50;56.50
39519;DHT22;25200;53.394;10.414;2023-04-28T12:39:14;20.50;56.50
39519;DHT22;25200;53.394;10.414;2023-04-28T12:41:44;20.50;56.40
39519;DHT22;25200;53.394;10.414;2023-04-28T12:44:10;20.40;57.00
39519;DHT22;25200;53.394;10.414;2023-04-28T12:46:36;20.40;56.30
39519;DHT22;25200;53.394;10.414;2023-04-28T12:49:02;20.40;56.40
39519;DHT22;25200;53.394;10.414;2023-04-28T12:51:28;20.30;56.00
39519;DHT22;25200;53.394;10.414;2023-04-28T12:53:54;20.30;56.20
39519;DHT22;25200;53.394;10.414;2023-04-28T12:56:19;20.30;56.50
39519;DHT22;25200;53.394;10.414;2023-04-28T12:58:45;20.30;56.60
39519;DHT22;25200;53.394;10.414;2023-04-28T13:01:11;20.30;56.70
39519;DHT22;25200;53.394;10.414;2023-04-28T13:03:36;20.30;57.20
39519;DHT22;25200;53.394;10.414;2023-04-28T13:06:02;20.30;56.90
39519;DHT22;25200;53.394;10.414;2023-04-28T13:08:28;20.30;57.10
39519;DHT22;25200;53.394;10.414;2023-04-28T13:10:58;20.30;56.80
39519;DHT22;25200;53.394;10.414;2023-04-28T13:13:24;20.30;56.60
39519;DHT22;25200;53.394;10.414;2023-04-28T13:15:49;20.30;56.70
39519;DHT22;25200;53.394;10.414;2023-04-28T13:18:16;20.20;55.50
39519;DHT22;25200;53.394;10.414;2023-04-28T13:20:41;20.10;55.50
39519;DHT22;25200;53.394;10.414;2023-04-28T13:23:07;20.00;55.80
39519;DHT22;25200;53.394;10.414;2023-04-28T13:25:33;19.90;55.70
39519;DHT22;25200;53.394;10.414;2023-04-28T13:27:58;19.90;55.40
39519;DHT22;25200;53.394;10.414;2023-04-28T13:30:24;19.90;55.50
39519;DHT22;25200;53.394;10.414;2023-04-28T13:32:51;19.80;55.30
39519;DHT22;25200;53.394;10.414;2023-04-28T13:35:16;19.80;56.10
39519;DHT22;25200;53.394;10.414;2023-04-28T13:37:42;19.80;56.60
39519;DHT22;25200;53.394;10.414;2023-04-28T13:40:10;19.80;56.80
39519;DHT22;25200;53.394;10.414;2023-04-28T13:42:37;19.80;56.20
39519;DHT22;25200;53.394;10.414;2023-04-28T13:45:02;19.80;56.70
39519;DHT22;25200;53.394;10.414;2023-04-28T13:47:28;19.70;56.20
39519;DHT22;25200;53.394;10.414;2023-04-28T13:49:57;19.70;56.30
39519;DHT22;25200;53.394;10.414;2023-04-28T13:52:24;19.70;56.80
39519;DHT22;25200;53.394;10.414;2023-04-28T13:54:50;19.60;56.70
39519;DHT22;25200;53.394;10.414;2023-04-28T13:57:16;19.50;56.50
39519;DHT22;25200;53.394;10.414;2023-04-28T13:59:42;19.40;55.30
39519;DHT22;25200;53.394;10.414;2023-04-28T14:02:08;19.20;55.40
39519;DHT22;25200;53.394;10.414;2023-04-28T14:04:36;19.10;56.00
39519;DHT22;25200;53.394;10.414;2023-04-28T14:07:01;18.90;55.90
39519;DHT22;25200;53.394;10.414;2023-04-28T14:09:27;18.80;56.20
39519;DHT22;25200;53.394;10.414;2023-04-28T14:11:53;18.70;56.00
39519;DHT22;25200;53.394;10.414;2023-04-28T14:14:21;18.60;56.00
39519;DHT22;25200;53.394;10.414;2023-04-28T14:16:47;18.50;56.30
39519;DHT22;25200;53.394;10.414;2023-04-28T14:19:13;18.50;56.50
39519;DHT22;25200;53.394;10.414;2023-04-28T14:21:42;18.40;56.40
39519;DHT22;25200;53.394;10.414;2023-04-28T14:24:08;18.40;56.60
39519;DHT22;25200;53.394;10.414;2023-04-28T14:26:35;18.40;56.80
39519;DHT22;25200;53.394;10.414;2023-04-28T14:29:01;18.40;56.80
39519;DHT22;25200;53.394;10.414;2023-04-28T14:31:26;18.40;56.90
39519;DHT22;25200;53.394;10.414;2023-04-28T14:33:53;18.40;57.00
39519;DHT22;25200;53.394;10.414;2023-04-28T14:36:18;18.40;56.90
39519;DHT22;25200;53.394;10.414;2023-04-28T14:38:44;18.40;57.00
39519;DHT22;25200;53.394;10.414;2023-04-28T14:41:10;18.40;57.00
39519;DHT22;25200;53.394;10.414;2023-04-28T14:43:36;18.30;56.90
39519;DHT22;25200;53.394;10.414;2023-04-28T14:46:03;18.30;57.00
39519;DHT22;25200;53.394;10.414;2023-04-28T14:48:30;18.30;57.00
39519;DHT22;25200;53.394;10.414;2023-04-28T14:50:56;18.30;56.80
39519;DHT22;25200;53.394;10.414;2023-04-28T14:53:22;18.30;57.20
39519;DHT22;25200;53.394;10.414;2023-04-28T14:55:48;18.30;57.10
39519;DHT22;25200;53.394;10.414;2023-04-28T14:58:14;18.30;57.00
39519;DHT22;25200;53.394;10.414;2023-04-28T15:00:40;18.20;57.10
39519;DHT22;25200;53.394;10.414;2023-04-28T15:03:06;18.20;57.10
39519;DHT22;25200;53.394;10.414;2023-04-28T15:05:32;18.10;57.10
39519;DHT22;25200;53.394;10.414;2023-04-28T15:07:57;18.10;56.80
39519;DHT22;25200;53.394;10.414;2023-04-28T15:10:23;18.00;56.50
39519;DHT22;25200;53.394;10.414;2023-04-28T15:12:49;17.90;56.60
39519;DHT22;25200;53.394;10.414;2023-04-28T15:15:14;17.90;56.50
39519;DHT22;25200;53.394;10.414;2023-04-28T15:17:40;17.80;56.60
39519;DHT22;25200;53.394;10.414;2023-04-28T15:20:06;17.70;56.60
39519;DHT22;25200;53.394;10.414;2023-04-28T15:22:32;17.60;56.60
39519;DHT22;25200;53.394;10.414;2023-04-28T15:24:59;17.50;56.50
39519;DHT22;25200;53.394;10.414;2023-04-28T15:27:25;17.40;56.80
39519;DHT22;25200;53.394;10.414;2023-04-28T15:29:50;17.40;56.80
39519;DHT22;25200;53.394;10.414;2023-04-28T15:32:16;17.30;56.90
39519;DHT22;25200;53.394;10.414;2023-04-28T15:34:42;17.30;57.00
39519;DHT22;25200;53.394;10.414;2023-04-28T15:40:04;17.20;57.10
39519;DHT22;25200;53.394;10.414;2023-04-28T15:42:31;17.20;57.20
39519;DHT22;25200;53.394;10.414;2023-04-28T15:44:57;17.20;57.30
39519;DHT22;25200;53.394;10.414;2023-04-28T15:47:23;17.10;57.20
39519;DHT22;25200;53.394;10.414;2023-04-28T15:49:51;17.10;57.30
39519;DHT22;25200;53.394;10.414;2023-04-28T15:52:17;17.10;57.40
39519;DHT22;25200;53.394;10.414;2023-04-28T15:54:43;17.10;57.30
39519;DHT22;25200;53.394;10.414;2023-04-28T15:57:09;17.10;57.50
39519;DHT22;25200;53.394;10.414;2023-04-28T15:59:34;17.00;57.40